createdAt,value
2019-02-09T00:00:25.546Z,95575.97
2019-02-09T00:03:13.786Z,95558.84
2019-02-09T00:06:01.952Z,95549.55
2019-02-09T00:08:50.350Z,95553.41
2019-02-09T00:11:38.357Z,95546.95
2019-02-09T00:14:26.164Z,95552.45
2019-02-09T00:17:13.789Z,95540.55
2019-02-09T00:20:01.784Z,95537.47
2019-02-09T00:22:49.771Z,95527.63
2019-02-09T00:25:37.994Z,95539.29
2019-02-09T00:28:26.182Z,95536.95
2019-02-09T00:31:14.304Z,95527.19
2019-02-09T00:34:02.132Z,95523.06
2019-02-09T00:36:50.424Z,95541.70
2019-02-09T00:39:38.630Z,95530.91
2019-02-09T00:42:26.908Z,95522.95
2019-02-09T00:45:16.037Z,95509.68
2019-02-09T00:48:04.256Z,95512.40
2019-02-09T00:50:52.187Z,95491.42
2019-02-09T00:53:40.247Z,95489.63
2019-02-09T00:56:28.221Z,95487.51
2019-02-09T00:59:16.219Z,95477.41
2019-02-09T01:02:03.993Z,95496.29
2019-02-09T01:04:52.819Z,95488.40
2019-02-09T01:07:41.119Z,95493.15
2019-02-09T01:10:30.834Z,95493.40
2019-02-09T01:13:18.685Z,95489.40
2019-02-09T01:16:06.718Z,95471.53
2019-02-09T01:18:54.899Z,95473.52
2019-02-09T01:21:42.670Z,95472.20
2019-02-09T01:24:30.542Z,95466.95
2019-02-09T01:27:18.409Z,95467.86
2019-02-09T01:30:11.279Z,95487.36
2019-02-09T01:32:59.524Z,95486.86
2019-02-09T01:35:46.958Z,95485.26
2019-02-09T01:38:34.742Z,95471.87
2019-02-09T01:41:22.555Z,95480.75
2019-02-09T01:44:10.583Z,95489.52
2019-02-09T01:46:58.605Z,95492.00
2019-02-09T01:49:46.821Z,95501.67
2019-02-09T01:52:34.729Z,95499.19
2019-02-09T01:55:22.653Z,95503.73
2019-02-09T01:58:10.808Z,95504.86
2019-02-09T02:00:58.677Z,95503.18
2019-02-09T02:03:46.923Z,95518.94
2019-02-09T02:06:35.045Z,95518.36
2019-02-09T02:09:23.335Z,95513.23
2019-02-09T02:12:11.252Z,95509.81
2019-02-09T02:14:58.873Z,95501.41
2019-02-09T02:17:46.934Z,95479.60
2019-02-09T02:20:34.854Z,95480.48
2019-02-09T02:23:22.620Z,95480.78
2019-02-09T02:26:10.910Z,95489.03
2019-02-09T02:28:58.793Z,95480.90
2019-02-09T02:31:47.547Z,95489.75
2019-02-09T02:34:34.905Z,95474.47
2019-02-09T02:37:22.865Z,95474.98
2019-02-09T02:40:11.894Z,95457.71
2019-02-09T02:42:59.924Z,95465.81
2019-02-09T02:45:47.659Z,95476.66
2019-02-09T02:48:35.344Z,95455.53
2019-02-09T02:51:23.418Z,95456.88
2019-02-09T02:54:11.456Z,95461.30
2019-02-09T02:56:59.674Z,95467.47
2019-02-09T02:59:47.903Z,95462.33
2019-02-09T03:02:35.749Z,95453.64
2019-02-09T03:05:24.543Z,95446.08
2019-02-09T03:08:12.296Z,95437.02
2019-02-09T03:11:00.215Z,95436.23
2019-02-09T03:13:48.106Z,95427.52
2019-02-09T03:16:36.156Z,95432.44
2019-02-09T03:19:24.248Z,95456.52
2019-02-09T03:22:12.214Z,95468.14
2019-02-09T03:24:59.987Z,95467.16
2019-02-09T03:27:48.415Z,95465.30
2019-02-09T03:30:47.219Z,95472.83
2019-02-09T03:33:25.860Z,95458.73
2019-02-09T03:36:13.721Z,95473.08
2019-02-09T03:39:01.623Z,95459.61
2019-02-09T03:41:49.482Z,95468.82
2019-02-09T03:44:37.562Z,95474.05
2019-02-09T03:47:25.426Z,95444.63
2019-02-09T03:50:13.928Z,95463.83
2019-02-09T03:53:02.546Z,95453.27
2019-02-09T03:55:50.419Z,95460.53
2019-02-09T03:58:38.454Z,95476.52
2019-02-09T04:01:26.443Z,95471.43
2019-02-09T04:04:14.365Z,95472.36
2019-02-09T04:07:02.346Z,95479.39
2019-02-09T04:09:50.364Z,95478.20
2019-02-09T04:12:38.622Z,95500.58
2019-02-09T04:15:26.831Z,95504.54
2019-02-09T04:18:15.128Z,95505.05
2019-02-09T04:21:03.089Z,95510.38
2019-02-09T04:23:51.305Z,95519.91
2019-02-09T04:26:39.390Z,95529.21
2019-02-09T04:29:27.252Z,95536.81
2019-02-09T04:32:15.308Z,95538.64
2019-02-09T04:35:03.082Z,95533.45
2019-02-09T04:37:51.049Z,95552.72
2019-02-09T04:40:39.307Z,95555.28
2019-02-09T04:43:27.055Z,95576.70
2019-02-09T04:46:15.081Z,95571.69
2019-02-09T04:49:03.136Z,95572.92
2019-02-09T04:51:50.980Z,95565.70
2019-02-09T04:54:39.107Z,95585.25
2019-02-09T04:57:26.982Z,95587.94
2019-02-09T05:00:18.507Z,95569.95
2019-02-09T05:03:06.744Z,95578.52
2019-02-09T05:05:54.772Z,95586.20
2019-02-09T05:08:44.001Z,95584.58
2019-02-09T05:11:32.147Z,95579.62
2019-02-09T05:14:20.381Z,95580.89
2019-02-09T05:17:08.367Z,95589.33
2019-02-09T05:19:56.641Z,95595.27
2019-02-09T05:22:44.710Z,95594.67
2019-02-09T05:25:32.562Z,95596.45
2019-02-09T05:28:20.735Z,95612.28
2019-02-09T05:31:08.572Z,95597.16
2019-02-09T05:33:56.377Z,95608.31
2019-02-09T05:36:44.591Z,95599.00
2019-02-09T05:39:33.782Z,95617.45
2019-02-09T05:42:21.706Z,95610.12
2019-02-09T05:45:11.957Z,95616.59
2019-02-09T05:48:00.154Z,95629.46
2019-02-09T05:50:48.313Z,95632.36
2019-02-09T05:53:36.260Z,95635.09
2019-02-09T05:56:24.231Z,95629.91
2019-02-09T05:59:12.187Z,95643.87
2019-02-09T06:02:00.216Z,95631.14
2019-02-09T06:04:48.424Z,95634.02
2019-02-09T06:07:36.594Z,95641.16
2019-02-09T06:10:24.800Z,95639.21
2019-02-09T06:13:12.902Z,95648.45
2019-02-09T06:16:01.207Z,95657.80
2019-02-09T06:18:48.853Z,95649.89
2019-02-09T06:21:36.400Z,95653.02
2019-02-09T06:24:24.569Z,95658.28
2019-02-09T06:27:12.819Z,95656.93
2019-02-09T06:30:01.165Z,95656.93
2019-02-09T06:32:49.382Z,95675.27
2019-02-09T06:35:37.594Z,95682.78
2019-02-09T06:38:27.095Z,95686.41
2019-02-09T06:41:15.233Z,95684.34
2019-02-09T06:44:02.936Z,95691.07
2019-02-09T06:46:50.687Z,95696.48
2019-02-09T06:49:38.847Z,95702.56
2019-02-09T06:52:27.033Z,95699.17
2019-02-09T06:55:15.600Z,95704.84
2019-02-09T06:58:03.759Z,95706.03
2019-02-09T07:00:51.972Z,95695.83
2019-02-09T07:03:40.285Z,95678.23
2019-02-09T07:06:28.470Z,95706.94
2019-02-09T07:09:16.429Z,95712.77
2019-02-09T07:12:04.598Z,95701.74
2019-02-09T07:14:52.684Z,95702.77
2019-02-09T07:17:40.658Z,95715.92
2019-02-09T07:20:28.714Z,95722.91
2019-02-09T07:23:16.631Z,95720.05
2019-02-09T07:26:05.266Z,95732.26
2019-02-09T07:28:53.149Z,95731.19
2019-02-09T07:31:41.513Z,95728.44
2019-02-09T07:34:29.650Z,95726.23
2019-02-09T07:37:17.871Z,95743.58
2019-02-09T07:40:06.716Z,95748.87
2019-02-09T07:42:55.058Z,95733.63
2019-02-09T07:45:43.258Z,95751.66
2019-02-09T07:48:31.130Z,95747.89
2019-02-09T07:51:19.094Z,95769.50
2019-02-09T07:54:07.003Z,95758.43
2019-02-09T07:56:55.095Z,95759.59
2019-02-09T07:59:43.341Z,95762.84
2019-02-09T08:02:31.793Z,95767.20
2019-02-09T08:05:20.211Z,95761.75
2019-02-09T08:08:08.311Z,95779.45
2019-02-09T08:10:56.127Z,95779.16
2019-02-09T08:13:44.206Z,95766.78
2019-02-09T08:16:32.349Z,95760.40
2019-02-09T08:19:20.610Z,95771.60
2019-02-09T08:22:08.969Z,95750.70
2019-02-09T08:24:56.609Z,95761.50
2019-02-09T08:27:44.435Z,95767.95
2019-02-09T08:30:51.527Z,95763.59
2019-02-09T08:33:39.747Z,95760.47
2019-02-09T08:36:28.597Z,95761.46
2019-02-09T08:39:16.534Z,95779.09
2019-02-09T08:42:05.031Z,95764.58
2019-02-09T08:44:52.846Z,95774.12
2019-02-09T08:47:40.914Z,95778.06
2019-02-09T08:50:31.510Z,95776.50
2019-02-09T08:53:19.460Z,95782.32
2019-02-09T08:56:07.567Z,95788.34
2019-02-09T08:58:55.370Z,95781.47
2019-02-09T09:01:43.237Z,95772.16
2019-02-09T09:04:31.405Z,95774.84
2019-02-09T09:07:19.685Z,95774.80
2019-02-09T09:10:08.811Z,95783.96
2019-02-09T09:12:57.069Z,95775.52
2019-02-09T09:15:47.680Z,95780.73
2019-02-09T09:18:35.219Z,95781.66
2019-02-09T09:21:23.216Z,95782.05
2019-02-09T09:24:11.260Z,95784.63
2019-02-09T09:26:59.376Z,95772.36
2019-02-09T09:29:47.271Z,95780.83
2019-02-09T09:32:34.887Z,95774.15
2019-02-09T09:35:22.826Z,95783.63
2019-02-09T09:38:10.681Z,95772.16
2019-02-09T09:40:58.969Z,95781.03
2019-02-09T09:43:47.157Z,95781.80
2019-02-09T09:46:35.205Z,95789.50
2019-02-09T09:49:23.582Z,95782.04
2019-02-09T09:52:11.442Z,95781.50
2019-02-09T09:54:59.381Z,95780.88
2019-02-09T09:57:47.934Z,95793.00
2019-02-09T10:00:35.834Z,95779.59
2019-02-09T10:03:23.883Z,95801.53
2019-02-09T10:06:11.964Z,95789.84
2019-02-09T10:08:59.628Z,95795.74
2019-02-09T10:11:47.513Z,95805.12
2019-02-09T10:14:35.712Z,95798.67
2019-02-09T10:17:23.409Z,95789.94
2019-02-09T10:20:13.599Z,95796.06
2019-02-09T10:23:01.378Z,95799.38
2019-02-09T10:25:49.292Z,95782.83
2019-02-09T10:28:37.413Z,95788.55
2019-02-09T10:31:25.238Z,95785.52
2019-02-09T10:34:13.578Z,95799.98
2019-02-09T10:37:01.483Z,95805.44
2019-02-09T10:39:49.800Z,95791.00
2019-02-09T10:42:37.848Z,95791.41
2019-02-09T10:45:27.311Z,95792.42
2019-02-09T10:48:15.487Z,95779.77
2019-02-09T10:51:03.431Z,95784.02
2019-02-09T10:53:51.603Z,95783.39
2019-02-09T10:56:39.249Z,95781.89
2019-02-09T10:59:27.225Z,95785.15
2019-02-09T11:02:15.386Z,95787.58
2019-02-09T11:05:03.228Z,95787.17
2019-02-09T11:07:51.052Z,95790.31
2019-02-09T11:10:38.718Z,95796.89
2019-02-09T11:13:26.769Z,95802.95
2019-02-09T11:16:15.331Z,95813.05
2019-02-09T11:19:03.255Z,95806.83
2019-02-09T11:21:51.328Z,95808.50
2019-02-09T11:24:39.156Z,95810.40
2019-02-09T11:27:28.167Z,95812.77
2019-02-09T11:30:18.761Z,95806.89
2019-02-09T11:33:06.686Z,95811.66
2019-02-09T11:35:54.652Z,95806.19
2019-02-09T11:38:42.510Z,95801.23
2019-02-09T11:41:30.974Z,95786.86
2019-02-09T11:44:18.444Z,95785.45
2019-02-09T11:47:06.117Z,95782.58
2019-02-09T11:49:54.271Z,95769.91
2019-02-09T11:52:42.781Z,95791.64
2019-02-09T11:55:30.949Z,95795.91
2019-02-09T11:58:19.280Z,95757.45
2019-02-09T12:01:07.157Z,95759.14
2019-02-09T12:03:55.599Z,95766.52
2019-02-09T12:06:43.176Z,95761.39
2019-02-09T12:09:31.537Z,95765.89
2019-02-09T12:12:19.636Z,95770.19
2019-02-09T12:15:11.089Z,95756.39
2019-02-09T12:17:59.156Z,95753.95
2019-02-09T12:20:46.947Z,95763.18
2019-02-09T12:23:34.958Z,95762.72
2019-02-09T12:26:22.573Z,95750.41
2019-02-09T12:29:10.949Z,95763.19
2019-02-09T12:31:58.707Z,95753.59
2019-02-09T12:34:46.632Z,95760.05
2019-02-09T12:37:34.584Z,95748.48
2019-02-09T12:40:25.411Z,95756.41
2019-02-09T12:43:13.362Z,95764.09
2019-02-09T12:46:01.341Z,95760.38
2019-02-09T12:48:49.460Z,95757.30
2019-02-09T12:51:37.693Z,95764.91
2019-02-09T12:54:26.027Z,95772.61
2019-02-09T12:57:13.716Z,95761.78
2019-02-09T13:00:01.697Z,95767.84
2019-02-09T13:02:49.826Z,95763.91
2019-02-09T13:05:37.895Z,95772.52
2019-02-09T13:08:25.699Z,95750.06
2019-02-09T13:11:13.665Z,95750.50
2019-02-09T13:14:01.486Z,95760.02
2019-02-09T13:16:49.491Z,95768.55
2019-02-09T13:19:37.005Z,95762.77
2019-02-09T13:22:25.095Z,95757.27
2019-02-09T13:25:12.738Z,95760.41
2019-02-09T13:28:00.820Z,95766.56
2019-02-09T13:30:48.662Z,95761.92
2019-02-09T13:33:39.004Z,95774.05
2019-02-09T13:36:25.875Z,95771.02
2019-02-09T13:39:13.969Z,95764.83
2019-02-09T13:42:02.071Z,95769.16
2019-02-09T13:44:50.293Z,95761.09
2019-02-09T13:47:38.097Z,95761.73
2019-02-09T13:50:27.194Z,95770.94
2019-02-09T13:53:15.961Z,95783.06
2019-02-09T13:56:03.860Z,95786.41
2019-02-09T13:58:51.835Z,95787.50
2019-02-09T14:01:39.747Z,95791.13
2019-02-09T14:04:27.329Z,95793.56
2019-02-09T14:07:15.170Z,95783.52
2019-02-09T14:10:03.515Z,95774.33
2019-02-09T14:12:51.747Z,95781.20
2019-02-09T14:15:39.884Z,95781.07
2019-02-09T14:18:27.759Z,95772.75
2019-02-09T14:21:15.720Z,95778.39
2019-02-09T14:24:04.009Z,95790.16
2019-02-09T14:26:51.942Z,95792.62
2019-02-09T14:29:39.880Z,95780.72
2019-02-09T14:32:28.044Z,95784.30
2019-02-09T14:35:16.666Z,95780.45
2019-02-09T14:38:05.306Z,95778.77
2019-02-09T14:40:53.419Z,95787.05
2019-02-09T14:43:41.415Z,95789.95
2019-02-09T14:46:29.801Z,95786.05
2019-02-09T14:49:17.681Z,95790.30
2019-02-09T14:52:06.189Z,95787.03
2019-02-09T14:54:53.952Z,95786.16
2019-02-09T14:57:42.214Z,95773.78
2019-02-09T15:00:33.214Z,95790.51
2019-02-09T15:03:26.990Z,95788.88
2019-02-09T15:06:10.452Z,95778.63
2019-02-09T15:08:58.070Z,95779.55
2019-02-09T15:11:46.210Z,95780.19
2019-02-09T15:14:34.571Z,95790.41
2019-02-09T15:17:22.702Z,95782.11
2019-02-09T15:20:14.224Z,95802.25
2019-02-09T15:23:02.055Z,95794.05
2019-02-09T15:25:50.071Z,95786.83
2019-02-09T15:28:38.242Z,95807.90
2019-02-09T15:31:26.034Z,95805.98
2019-02-09T15:34:13.839Z,95785.95
2019-02-09T15:37:01.922Z,95785.39
2019-02-09T15:39:49.832Z,95778.00
2019-02-09T15:42:37.826Z,95790.58
2019-02-09T15:45:26.173Z,95787.22
2019-02-09T15:48:14.062Z,95788.26
2019-02-09T15:51:02.234Z,95783.98
2019-02-09T15:53:50.506Z,95788.33
2019-02-09T15:56:38.013Z,95789.86
2019-02-09T15:59:26.133Z,95785.36
2019-02-09T16:02:14.343Z,95793.52
2019-02-09T16:05:02.794Z,95786.37
2019-02-09T16:07:50.649Z,95785.36
2019-02-09T16:10:38.968Z,95791.38
2019-02-09T16:13:26.481Z,95784.38
2019-02-09T16:16:14.744Z,95795.41
2019-02-09T16:19:02.731Z,95789.36
2019-02-09T16:21:50.488Z,95801.59
2019-02-09T16:24:38.427Z,95791.91
2019-02-09T16:27:26.663Z,95804.19
2019-02-09T16:30:18.679Z,95805.11
2019-02-09T16:33:06.629Z,95805.05
2019-02-09T16:35:54.577Z,95815.72
2019-02-09T16:38:42.803Z,95814.50
2019-02-09T16:41:30.854Z,95810.00
2019-02-09T16:44:18.721Z,95818.95
2019-02-09T16:47:06.890Z,95816.41
2019-02-09T16:49:54.454Z,95813.02
2019-02-09T16:52:42.813Z,95811.64
2019-02-09T16:55:30.935Z,95803.28
2019-02-09T16:58:18.803Z,95805.77
2019-02-09T17:01:07.095Z,95810.28
2019-02-09T17:03:54.724Z,95812.27
2019-02-09T17:06:42.835Z,95805.03
2019-02-09T17:09:30.858Z,95804.03
2019-02-09T17:12:18.831Z,95806.02
2019-02-09T17:15:07.330Z,95814.39
2019-02-09T17:17:55.074Z,95815.97
2019-02-09T17:20:42.948Z,95824.22
2019-02-09T17:23:30.891Z,95821.59
2019-02-09T17:26:18.401Z,95819.61
2019-02-09T17:29:07.080Z,95816.05
2019-02-09T17:31:54.966Z,95813.80
2019-02-09T17:34:42.855Z,95812.77
2019-02-09T17:37:30.708Z,95795.03
2019-02-09T17:40:20.761Z,95818.39
2019-02-09T17:43:09.400Z,95820.16
2019-02-09T17:46:10.693Z,95817.70
2019-02-09T17:48:58.612Z,95822.70
2019-02-09T17:51:46.468Z,95824.89
2019-02-09T17:54:34.020Z,95827.02
2019-02-09T17:57:21.544Z,95831.22
2019-02-09T18:00:13.368Z,95820.65
2019-02-09T18:03:01.706Z,95826.68
2019-02-09T18:05:49.709Z,95818.29
2019-02-09T18:08:37.265Z,95827.00
2019-02-09T18:11:24.663Z,95824.67
2019-02-09T18:14:13.044Z,95823.88
2019-02-09T18:17:01.395Z,95830.36
2019-02-09T18:19:49.222Z,95824.49
2019-02-09T18:22:37.203Z,95824.45
2019-02-09T18:25:25.245Z,95821.09
2019-02-09T18:28:13.080Z,95825.89
2019-02-09T18:31:01.029Z,95821.87
2019-02-09T18:33:48.858Z,95816.25
2019-02-09T18:36:36.917Z,95824.34
2019-02-09T18:39:25.014Z,95816.39
2019-02-09T18:42:12.656Z,95808.66
2019-02-09T18:45:00.249Z,95803.28
2019-02-09T18:47:48.812Z,95803.10
2019-02-09T18:50:36.775Z,95805.62
2019-02-09T18:53:24.713Z,95797.19
2019-02-09T18:56:12.846Z,95784.06
2019-02-09T18:59:00.829Z,95777.14
2019-02-09T19:01:48.849Z,95785.09
2019-02-09T19:04:37.016Z,95781.72
2019-02-09T19:07:25.358Z,95791.97
2019-02-09T19:10:18.878Z,95790.30
2019-02-09T19:13:07.149Z,95790.98
2019-02-09T19:15:55.623Z,95777.92
2019-02-09T19:18:43.709Z,95780.97
2019-02-09T19:21:31.833Z,95790.19
2019-02-09T19:24:19.654Z,95781.01
2019-02-09T19:27:07.959Z,95786.50
2019-02-09T19:29:56.241Z,95774.78
2019-02-09T19:32:43.804Z,95758.52
2019-02-09T19:35:31.905Z,95763.73
2019-02-09T19:38:19.881Z,95760.98
2019-02-09T19:41:07.595Z,95765.70
2019-02-09T19:43:55.666Z,95760.28
2019-02-09T19:46:43.597Z,95765.28
2019-02-09T19:49:31.768Z,95767.74
2019-02-09T19:52:19.538Z,95770.33
2019-02-09T19:55:09.890Z,95766.45
2019-02-09T19:57:58.072Z,95759.55
2019-02-09T20:00:46.217Z,95751.94
2019-02-09T20:03:34.067Z,95753.48
2019-02-09T20:06:21.818Z,95754.52
2019-02-09T20:09:10.850Z,95753.38
2019-02-09T20:11:59.164Z,95756.36
2019-02-09T20:14:47.627Z,95763.09
2019-02-09T20:17:35.455Z,95744.37
2019-02-09T20:20:23.335Z,95742.63
2019-02-09T20:23:11.149Z,95742.77
2019-02-09T20:25:59.318Z,95745.57
2019-02-09T20:28:47.354Z,95742.77
2019-02-09T20:31:35.102Z,95722.66
2019-02-09T20:34:22.900Z,95736.71
2019-02-09T20:37:10.682Z,95745.95
2019-02-09T20:39:59.054Z,95739.22
2019-02-09T20:42:46.717Z,95732.23
2019-02-09T20:45:34.305Z,95729.53
2019-02-09T20:48:22.335Z,95738.58
2019-02-09T20:51:10.477Z,95745.81
2019-02-09T20:53:58.630Z,95734.78
2019-02-09T20:56:46.179Z,95738.56
2019-02-09T20:59:34.462Z,95733.84
2019-02-09T21:02:22.567Z,95723.89
2019-02-09T21:05:10.805Z,95730.68
2019-02-09T21:07:59.067Z,95729.12
2019-02-09T21:10:47.202Z,95729.22
2019-02-09T21:13:35.336Z,95733.95
2019-02-09T21:16:23.222Z,95729.41
2019-02-09T21:19:11.366Z,95727.91
2019-02-09T21:21:59.383Z,95719.11
2019-02-09T21:24:46.926Z,95732.23
2019-02-09T21:27:34.750Z,95719.29
2019-02-09T21:30:22.714Z,95723.08
2019-02-09T21:33:10.884Z,95715.70
2019-02-09T21:35:59.041Z,95705.99
2019-02-09T21:38:47.020Z,95712.22
2019-02-09T21:41:36.194Z,95711.46
2019-02-09T21:44:24.475Z,95718.09
2019-02-09T21:47:12.672Z,95714.73
2019-02-09T21:50:00.832Z,95713.50
2019-02-09T21:52:48.781Z,95710.42
2019-02-09T21:55:36.789Z,95718.52
2019-02-09T21:58:25.099Z,95705.69
2019-02-09T22:01:13.267Z,95699.16
2019-02-09T22:04:01.255Z,95696.30
2019-02-09T22:06:49.089Z,95693.67
2019-02-09T22:09:37.221Z,95694.11
2019-02-09T22:12:25.071Z,95695.06
2019-02-09T22:15:13.074Z,95697.12
2019-02-09T22:18:01.006Z,95707.48
2019-02-09T22:20:52.781Z,95705.46
2019-02-09T22:23:38.753Z,95695.84
2019-02-09T22:26:26.330Z,95697.39
2019-02-09T22:29:14.022Z,95690.67
2019-02-09T22:32:01.981Z,95697.39
2019-02-09T22:34:50.112Z,95691.30
2019-02-09T22:37:37.976Z,95689.20
2019-02-09T22:40:28.149Z,95696.15
2019-02-09T22:43:16.013Z,95700.27
2019-02-09T22:46:04.161Z,95689.95
2019-02-09T22:48:52.285Z,95687.56
2019-02-09T22:51:40.048Z,95671.27
2019-02-09T22:54:28.820Z,95668.91
2019-02-09T22:57:16.824Z,95657.45
2019-02-09T23:00:09.818Z,95661.97
2019-02-09T23:02:59.247Z,95659.11
2019-02-09T23:06:19.455Z,95672.22
2019-02-09T23:09:09.880Z,95668.85
2019-02-09T23:11:57.699Z,95666.61
2019-02-09T23:14:45.602Z,95656.17
2019-02-09T23:17:33.336Z,95653.23
2019-02-09T23:20:21.275Z,95645.72
2019-02-09T23:23:09.271Z,95649.39
2019-02-09T23:25:57.082Z,95643.17
2019-02-09T23:28:45.300Z,95637.14
2019-02-09T23:31:33.089Z,95633.63
2019-02-09T23:34:20.980Z,95630.19
2019-02-09T23:37:09.057Z,95623.72
2019-02-09T23:39:57.230Z,95622.83
2019-02-09T23:42:45.350Z,95623.21
2019-02-09T23:45:33.157Z,95625.56
2019-02-09T23:48:21.045Z,95634.67
2019-02-09T23:51:09.356Z,95627.70
2019-02-09T23:53:57.489Z,95615.59
2019-02-09T23:56:45.461Z,95606.31
2019-02-09T23:59:33.328Z,95605.41
